sensor_id;sensor_type;location;lat;lon;timestamp;P1;durP1;ratioP1;P2;durP2;ratioP2
4182;SDS011;2105;52.300;9.182;2023-08-08T00:02:20;11.57;;;10.03;;
4182;SDS011;2105;52.300;9.182;2023-08-08T00:04:48;11.10;;;10.00;;
4182;SDS011;2105;52.300;9.182;2023-08-08T00:07:15;11.07;;;9.93;;
4182;SDS011;2105;52.300;9.182;2023-08-08T00:09:43;10.93;;;9.93;;
4182;SDS011;2105;52.300;9.182;2023-08-08T00:12:11;11.70;;;10.10;;
4182;SDS011;2105;52.300;9.182;2023-08-08T00:14:38;10.70;;;9.70;;
4182;SDS011;2105;52.300;9.182;2023-08-08T00:17:05;10.20;;;9.40;;
4182;SDS011;2105;52.300;9.182;2023-08-08T00:19:33;10.80;;;9.80;;
4182;SDS011;2105;52.300;9.182;2023-08-08T00:22:00;10.33;;;9.30;;
4182;SDS011;2105;52.300;9.182;2023-08-08T00:24:27;14.30;;;9.67;;
4182;SDS011;2105;52.300;9.182;2023-08-08T00:26:54;11.40;;;9.67;;
4182;SDS011;2105;52.300;9.182;2023-08-08T00:29:23;14.90;;;9.70;;
4182;SDS011;2105;52.300;9.182;2023-08-08T00:31:50;10.37;;;9.33;;
4182;SDS011;2105;52.300;9.182;2023-08-08T00:34:18;11.47;;;10.27;;
4182;SDS011;2105;52.300;9.182;2023-08-08T00:36:45;10.30;;;9.30;;
4182;SDS011;2105;52.300;9.182;2023-08-08T00:39:12;11.77;;;9.90;;
4182;SDS011;2105;52.300;9.182;2023-08-08T00:41:40;11.70;;;10.00;;
4182;SDS011;2105;52.300;9.182;2023-08-08T00:44:07;10.80;;;9.90;;
4182;SDS011;2105;52.300;9.182;2023-08-08T00:46:35;11.47;;;9.97;;
4182;SDS011;2105;52.300;9.182;2023-08-08T00:49:02;20.40;;;10.17;;
4182;SDS011;2105;52.300;9.182;2023-08-08T00:51:30;11.00;;;9.90;;
4182;SDS011;2105;52.300;9.182;2023-08-08T00:53:57;10.57;;;9.77;;
4182;SDS011;2105;52.300;9.182;2023-08-08T00:56:24;11.30;;;10.20;;
4182;SDS011;2105;52.300;9.182;2023-08-08T00:58:51;13.53;;;10.30;;
4182;SDS011;2105;52.300;9.182;2023-08-08T01:01:19;10.67;;;9.77;;
4182;SDS011;2105;52.300;9.182;2023-08-08T01:03:47;14.50;;;10.37;;
4182;SDS011;2105;52.300;9.182;2023-08-08T01:06:17;11.33;;;10.20;;
4182;SDS011;2105;52.300;9.182;2023-08-08T01:08:47;10.90;;;9.80;;
4182;SDS011;2105;52.300;9.182;2023-08-08T01:11:16;11.60;;;10.07;;
4182;SDS011;2105;52.300;9.182;2023-08-08T01:13:44;11.07;;;10.10;;
4182;SDS011;2105;52.300;9.182;2023-08-08T01:16:11;12.10;;;10.90;;
4182;SDS011;2105;52.300;9.182;2023-08-08T01:18:39;11.90;;;10.90;;
4182;SDS011;2105;52.300;9.182;2023-08-08T01:21:08;11.37;;;10.17;;
4182;SDS011;2105;52.300;9.182;2023-08-08T01:23:40;11.67;;;10.60;;
4182;SDS011;2105;52.300;9.182;2023-08-08T01:26:10;13.90;;;11.07;;
4182;SDS011;2105;52.300;9.182;2023-08-08T01:28:38;13.73;;;9.90;;
4182;SDS011;2105;52.300;9.182;2023-08-08T01:31:05;11.33;;;10.33;;
4182;SDS011;2105;52.300;9.182;2023-08-08T01:33:32;11.47;;;10.40;;
4182;SDS011;2105;52.300;9.182;2023-08-08T01:36:00;11.30;;;10.40;;
4182;SDS011;2105;52.300;9.182;2023-08-08T01:38:30;12.37;;;11.10;;
4182;SDS011;2105;52.300;9.182;2023-08-08T01:40:58;12.10;;;10.70;;
4182;SDS011;2105;52.300;9.182;2023-08-08T01:43:27;11.47;;;10.37;;
4182;SDS011;2105;52.300;9.182;2023-08-08T01:45:55;11.60;;;10.47;;
4182;SDS011;2105;52.300;9.182;2023-08-08T01:48:23;11.53;;;10.50;;
4182;SDS011;2105;52.300;9.182;2023-08-08T01:50:50;12.27;;;10.97;;
4182;SDS011;2105;52.300;9.182;2023-08-08T01:53:17;12.60;;;10.53;;
4182;SDS011;2105;52.300;9.182;2023-08-08T01:55:44;11.40;;;10.50;;
4182;SDS011;2105;52.300;9.182;2023-08-08T01:58:11;11.90;;;10.70;;
4182;SDS011;2105;52.300;9.182;2023-08-08T02:00:40;11.20;;;10.13;;
4182;SDS011;2105;52.300;9.182;2023-08-08T02:03:09;11.60;;;10.50;;
4182;SDS011;2105;52.300;9.182;2023-08-08T02:05:36;11.40;;;10.20;;
4182;SDS011;2105;52.300;9.182;2023-08-08T02:08:04;12.70;;;10.50;;
4182;SDS011;2105;52.300;9.182;2023-08-08T02:10:31;10.60;;;9.70;;
4182;SDS011;2105;52.300;9.182;2023-08-08T02:12:58;12.63;;;10.23;;
4182;SDS011;2105;52.300;9.182;2023-08-08T02:15:25;13.43;;;11.10;;
4182;SDS011;2105;52.300;9.182;2023-08-08T02:17:54;14.70;;;9.37;;
4182;SDS011;2105;52.300;9.182;2023-08-08T02:20:21;11.37;;;9.83;;
4182;SDS011;2105;52.300;9.182;2023-08-08T02:22:48;10.77;;;9.87;;
4182;SDS011;2105;52.300;9.182;2023-08-08T02:25:15;11.00;;;9.73;;
4182;SDS011;2105;52.300;9.182;2023-08-08T02:27:42;11.67;;;10.50;;
4182;SDS011;2105;52.300;9.182;2023-08-08T02:30:10;15.07;;;10.13;;
4182;SDS011;2105;52.300;9.182;2023-08-08T02:32:37;12.23;;;10.47;;
4182;SDS011;2105;52.300;9.182;2023-08-08T02:35:07;12.80;;;10.47;;
4182;SDS011;2105;52.300;9.182;2023-08-08T02:37:34;11.10;;;10.23;;
4182;SDS011;2105;52.300;9.182;2023-08-08T02:40:01;11.70;;;10.80;;
4182;SDS011;2105;52.300;9.182;2023-08-08T02:42:29;12.20;;;10.60;;
4182;SDS011;2105;52.300;9.182;2023-08-08T02:44:57;11.83;;;10.73;;
4182;SDS011;2105;52.300;9.182;2023-08-08T02:47:24;11.67;;;10.67;;
4182;SDS011;2105;52.300;9.182;2023-08-08T02:49:51;11.97;;;10.60;;
4182;SDS011;2105;52.300;9.182;2023-08-08T02:52:19;12.33;;;11.00;;
4182;SDS011;2105;52.300;9.182;2023-08-08T02:54:47;13.60;;;10.33;;
4182;SDS011;2105;52.300;9.182;2023-08-08T02:57:14;11.77;;;10.67;;
4182;SDS011;2105;52.300;9.182;2023-08-08T02:59:41;11.37;;;10.27;;
4182;SDS011;2105;52.300;9.182;2023-08-08T03:02:08;12.43;;;10.60;;
4182;SDS011;2105;52.300;9.182;2023-08-08T03:04:35;15.53;;;10.37;;
4182;SDS011;2105;52.300;9.182;2023-08-08T03:07:03;10.13;;;9.30;;
4182;SDS011;2105;52.300;9.182;2023-08-08T03:09:31;11.77;;;9.83;;
4182;SDS011;2105;52.300;9.182;2023-08-08T03:11:58;11.20;;;10.13;;
4182;SDS011;2105;52.300;9.182;2023-08-08T03:14:26;11.00;;;10.00;;
4182;SDS011;2105;52.300;9.182;2023-08-08T03:16:53;12.13;;;10.00;;
4182;SDS011;2105;52.300;9.182;2023-08-08T03:19:20;12.43;;;9.83;;
4182;SDS011;2105;52.300;9.182;2023-08-08T03:21:47;11.13;;;9.70;;
4182;SDS011;2105;52.300;9.182;2023-08-08T03:24:14;11.37;;;10.43;;
4182;SDS011;2105;52.300;9.182;2023-08-08T03:26:43;15.17;;;10.83;;
4182;SDS011;2105;52.300;9.182;2023-08-08T03:29:10;10.60;;;9.50;;
4182;SDS011;2105;52.300;9.182;2023-08-08T03:31:38;12.63;;;9.90;;
4182;SDS011;2105;52.300;9.182;2023-08-08T03:34:05;10.60;;;9.60;;
4182;SDS011;2105;52.300;9.182;2023-08-08T03:36:32;11.20;;;10.10;;
4182;SDS011;2105;52.300;9.182;2023-08-08T03:38:59;12.90;;;10.07;;
4182;SDS011;2105;52.300;9.182;2023-08-08T03:41:28;11.37;;;9.90;;
4182;SDS011;2105;52.300;9.182;2023-08-08T03:43:56;10.67;;;9.67;;
4182;SDS011;2105;52.300;9.182;2023-08-08T03:46:23;11.17;;;10.07;;
4182;SDS011;2105;52.300;9.182;2023-08-08T03:48:51;11.53;;;10.23;;
4182;SDS011;2105;52.300;9.182;2023-08-08T03:51:18;15.00;;;10.30;;
4182;SDS011;2105;52.300;9.182;2023-08-08T03:53:45;13.00;;;10.77;;
4182;SDS011;2105;52.300;9.182;2023-08-08T03:56:12;10.97;;;10.00;;
4182;SDS011;2105;52.300;9.182;2023-08-08T03:58:39;15.60;;;10.73;;
4182;SDS011;2105;52.300;9.182;2023-08-08T04:01:08;11.87;;;9.83;;
4182;SDS011;2105;52.300;9.182;2023-08-08T04:03:35;10.37;;;9.50;;
4182;SDS011;2105;52.300;9.182;2023-08-08T04:06:03;11.63;;;10.43;;
4182;SDS011;2105;52.300;9.182;2023-08-08T04:08:30;11.47;;;10.57;;
4182;SDS011;2105;52.300;9.182;2023-08-08T04:10:57;11.33;;;10.27;;
4182;SDS011;2105;52.300;9.182;2023-08-08T04:13:24;12.70;;;9.70;;
4182;SDS011;2105;52.300;9.182;2023-08-08T04:15:51;12.37;;;10.10;;
4182;SDS011;2105;52.300;9.182;2023-08-08T04:18:20;13.07;;;10.07;;
4182;SDS011;2105;52.300;9.182;2023-08-08T04:20:47;12.20;;;9.60;;
4182;SDS011;2105;52.300;9.182;2023-08-08T04:23:14;11.93;;;10.00;;
4182;SDS011;2105;52.300;9.182;2023-08-08T04:25:42;13.30;;;10.47;;
4182;SDS011;2105;52.300;9.182;2023-08-08T04:28:09;14.10;;;11.53;;
4182;SDS011;2105;52.300;9.182;2023-08-08T04:30:36;11.60;;;10.40;;
4182;SDS011;2105;52.300;9.182;2023-08-08T04:33:03;16.73;;;10.80;;
4182;SDS011;2105;52.300;9.182;2023-08-08T04:35:32;21.70;;;11.13;;
4182;SDS011;2105;52.300;9.182;2023-08-08T04:37:59;12.57;;;11.23;;
4182;SDS011;2105;52.300;9.182;2023-08-08T04:40:26;12.90;;;10.57;;
4182;SDS011;2105;52.300;9.182;2023-08-08T04:42:54;12.40;;;10.70;;
4182;SDS011;2105;52.300;9.182;2023-08-08T04:45:23;14.40;;;10.80;;
4182;SDS011;2105;52.300;9.182;2023-08-08T04:47:52;13.13;;;11.50;;
4182;SDS011;2105;52.300;9.182;2023-08-08T04:50:19;16.00;;;11.13;;
4182;SDS011;2105;52.300;9.182;2023-08-08T04:52:47;12.27;;;11.07;;
4182;SDS011;2105;52.300;9.182;2023-08-08T04:55:15;12.00;;;10.80;;
4182;SDS011;2105;52.300;9.182;2023-08-08T04:57:42;18.70;;;12.07;;
4182;SDS011;2105;52.300;9.182;2023-08-08T05:00:09;14.53;;;11.10;;
4182;SDS011;2105;52.300;9.182;2023-08-08T05:02:37;14.90;;;11.53;;
4182;SDS011;2105;52.300;9.182;2023-08-08T05:05:08;17.13;;;12.00;;
4182;SDS011;2105;52.300;9.182;2023-08-08T05:07:36;12.70;;;11.00;;
4182;SDS011;2105;52.300;9.182;2023-08-08T05:10:05;17.00;;;11.60;;
4182;SDS011;2105;52.300;9.182;2023-08-08T05:12:32;14.53;;;11.90;;
4182;SDS011;2105;52.300;9.182;2023-08-08T05:14:59;13.73;;;12.20;;
4182;SDS011;2105;52.300;9.182;2023-08-08T05:17:29;16.87;;;12.80;;
4182;SDS011;2105;52.300;9.182;2023-08-08T05:19:57;13.97;;;11.73;;
4182;SDS011;2105;52.300;9.182;2023-08-08T05:22:24;13.00;;;11.63;;
4182;SDS011;2105;52.300;9.182;2023-08-08T05:24:53;13.37;;;11.97;;
4182;SDS011;2105;52.300;9.182;2023-08-08T05:27:22;18.40;;;11.33;;
4182;SDS011;2105;52.300;9.182;2023-08-08T05:29:49;11.83;;;10.80;;
4182;SDS011;2105;52.300;9.182;2023-08-08T05:32:16;14.43;;;11.27;;
4182;SDS011;2105;52.300;9.182;2023-08-08T05:34:43;13.30;;;11.83;;
4182;SDS011;2105;52.300;9.182;2023-08-08T05:37:11;12.70;;;11.50;;
4182;SDS011;2105;52.300;9.182;2023-08-08T05:39:38;13.40;;;12.00;;
4182;SDS011;2105;52.300;9.182;2023-08-08T05:42:05;13.97;;;12.50;;
4182;SDS011;2105;52.300;9.182;2023-08-08T05:44:34;14.77;;;12.70;;
4182;SDS011;2105;52.300;9.182;2023-08-08T05:47:01;14.20;;;12.73;;
4182;SDS011;2105;52.300;9.182;2023-08-08T05:49:31;15.03;;;13.63;;
4182;SDS011;2105;52.300;9.182;2023-08-08T05:52:03;15.10;;;13.30;;
4182;SDS011;2105;52.300;9.182;2023-08-08T05:54:30;17.47;;;13.57;;
4182;SDS011;2105;52.300;9.182;2023-08-08T05:56:57;15.60;;;14.00;;
4182;SDS011;2105;52.300;9.182;2023-08-08T05:59:24;15.03;;;13.43;;
4182;SDS011;2105;52.300;9.182;2023-08-08T06:01:53;16.47;;;14.07;;
4182;SDS011;2105;52.300;9.182;2023-08-08T06:04:20;15.40;;;13.47;;
4182;SDS011;2105;52.300;9.182;2023-08-08T06:06:47;15.10;;;13.53;;
4182;SDS011;2105;52.300;9.182;2023-08-08T06:09:15;15.80;;;14.10;;
4182;SDS011;2105;52.300;9.182;2023-08-08T06:11:42;16.50;;;14.07;;
4182;SDS011;2105;52.300;9.182;2023-08-08T06:14:09;16.40;;;14.73;;
4182;SDS011;2105;52.300;9.182;2023-08-08T06:16:37;17.43;;;14.20;;
4182;SDS011;2105;52.300;9.182;2023-08-08T06:21:59;15.30;;;13.70;;
4182;SDS011;2105;52.300;9.182;2023-08-08T06:24:28;19.07;;;15.40;;
4182;SDS011;2105;52.300;9.182;2023-08-08T06:26:55;19.53;;;15.00;;
4182;SDS011;2105;52.300;9.182;2023-08-08T06:29:23;16.07;;;13.53;;
4182;SDS011;2105;52.300;9.182;2023-08-08T06:31:50;15.43;;;13.80;;
4182;SDS011;2105;52.300;9.182;2023-08-08T06:34:17;20.40;;;15.03;;
4182;SDS011;2105;52.300;9.182;2023-08-08T06:36:44;15.90;;;14.40;;
4182;SDS011;2105;52.300;9.182;2023-08-08T06:39:13;16.90;;;13.47;;
4182;SDS011;2105;52.300;9.182;2023-08-08T06:41:40;17.83;;;16.00;;
4182;SDS011;2105;52.300;9.182;2023-08-08T06:44:07;16.20;;;14.70;;
4182;SDS011;2105;52.300;9.182;2023-08-08T06:46:35;16.90;;;15.20;;
4182;SDS011;2105;52.300;9.182;2023-08-08T06:49:02;18.00;;;16.50;;
4182;SDS011;2105;52.300;9.182;2023-08-08T06:51:29;21.17;;;15.17;;
4182;SDS011;2105;52.300;9.182;2023-08-08T06:53:57;15.60;;;14.10;;
4182;SDS011;2105;52.300;9.182;2023-08-08T06:56:25;18.87;;;15.40;;
4182;SDS011;2105;52.300;9.182;2023-08-08T06:58:52;15.20;;;13.23;;
4182;SDS011;2105;52.300;9.182;2023-08-08T07:01:19;19.70;;;18.00;;
4182;SDS011;2105;52.300;9.182;2023-08-08T07:03:46;21.13;;;19.37;;
4182;SDS011;2105;52.300;9.182;2023-08-08T07:06:14;14.63;;;13.20;;
4182;SDS011;2105;52.300;9.182;2023-08-08T07:08:42;17.30;;;13.83;;
4182;SDS011;2105;52.300;9.182;2023-08-08T07:11:09;17.73;;;15.43;;
4182;SDS011;2105;52.300;9.182;2023-08-08T07:13:38;16.93;;;15.30;;
4182;SDS011;2105;52.300;9.182;2023-08-08T07:16:05;18.47;;;16.97;;
4182;SDS011;2105;52.300;9.182;2023-08-08T07:18:32;17.63;;;13.83;;
4182;SDS011;2105;52.300;9.182;2023-08-08T07:20:59;19.10;;;17.20;;
4182;SDS011;2105;52.300;9.182;2023-08-08T07:23:26;13.97;;;12.80;;
4182;SDS011;2105;52.300;9.182;2023-08-08T07:25:53;19.60;;;13.80;;
4182;SDS011;2105;52.300;9.182;2023-08-08T07:28:20;14.80;;;13.43;;
4182;SDS011;2105;52.300;9.182;2023-08-08T07:30:49;14.70;;;13.40;;
4182;SDS011;2105;52.300;9.182;2023-08-08T07:33:16;15.43;;;13.83;;
4182;SDS011;2105;52.300;9.182;2023-08-08T07:35:43;16.53;;;14.70;;
4182;SDS011;2105;52.300;9.182;2023-08-08T07:38:10;15.53;;;13.50;;
4182;SDS011;2105;52.300;9.182;2023-08-08T07:40:37;18.53;;;16.83;;
4182;SDS011;2105;52.300;9.182;2023-08-08T07:43:06;14.93;;;13.50;;
4182;SDS011;2105;52.300;9.182;2023-08-08T07:45:33;17.07;;;15.33;;
4182;SDS011;2105;52.300;9.182;2023-08-08T07:48:01;15.83;;;14.37;;
4182;SDS011;2105;52.300;9.182;2023-08-08T07:50:28;17.63;;;15.10;;
4182;SDS011;2105;52.300;9.182;2023-08-08T07:52:56;14.03;;;12.73;;
4182;SDS011;2105;52.300;9.182;2023-08-08T07:55:23;14.80;;;13.47;;
4182;SDS011;2105;52.300;9.182;2023-08-08T07:57:50;15.87;;;14.10;;
4182;SDS011;2105;52.300;9.182;2023-08-08T08:00:17;14.93;;;13.40;;
4182;SDS011;2105;52.300;9.182;2023-08-08T08:02:45;15.00;;;13.63;;
4182;SDS011;2105;52.300;9.182;2023-08-08T08:05:14;21.20;;;19.40;;
4182;SDS011;2105;52.300;9.182;2023-08-08T08:07:41;15.43;;;14.23;;
4182;SDS011;2105;52.300;9.182;2023-08-08T08:10:09;21.70;;;20.00;;
4182;SDS011;2105;52.300;9.182;2023-08-08T08:12:38;19.13;;;17.53;;
4182;SDS011;2105;52.300;9.182;2023-08-08T08:15:06;16.43;;;14.90;;
4182;SDS011;2105;52.300;9.182;2023-08-08T08:17:33;16.30;;;14.77;;
4182;SDS011;2105;52.300;9.182;2023-08-08T08:20:00;16.03;;;14.50;;
4182;SDS011;2105;52.300;9.182;2023-08-08T08:22:32;15.97;;;14.30;;
4182;SDS011;2105;52.300;9.182;2023-08-08T08:24:59;15.93;;;14.20;;
4182;SDS011;2105;52.300;9.182;2023-08-08T08:27:26;15.93;;;14.27;;
4182;SDS011;2105;52.300;9.182;2023-08-08T08:29:53;14.57;;;9.00;;
4182;SDS011;2105;52.300;9.182;2023-08-08T08:32:20;16.60;;;11.73;;
4182;SDS011;2105;52.300;9.182;2023-08-08T08:34:47;12.43;;;11.30;;
4182;SDS011;2105;52.300;9.182;2023-08-08T08:37:14;20.37;;;11.60;;
4182;SDS011;2105;52.300;9.182;2023-08-08T08:39:43;13.73;;;10.80;;
4182;SDS011;2105;52.300;9.182;2023-08-08T08:42:10;11.90;;;10.80;;
4182;SDS011;2105;52.300;9.182;2023-08-08T08:44:40;14.33;;;11.73;;
4182;SDS011;2105;52.300;9.182;2023-08-08T08:47:07;14.90;;;13.53;;
4182;SDS011;2105;52.300;9.182;2023-08-08T08:49:35;14.57;;;12.87;;
4182;SDS011;2105;52.300;9.182;2023-08-08T08:52:04;15.80;;;13.40;;
4182;SDS011;2105;52.300;9.182;2023-08-08T08:54:32;15.27;;;13.33;;
4182;SDS011;2105;52.300;9.182;2023-08-08T08:57:01;19.23;;;16.13;;
4182;SDS011;2105;52.300;9.182;2023-08-08T08:59:28;16.17;;;14.13;;
4182;SDS011;2105;52.300;9.182;2023-08-08T09:01:56;15.40;;;14.00;;
4182;SDS011;2105;52.300;9.182;2023-08-08T09:04:27;21.53;;;16.07;;
4182;SDS011;2105;52.300;9.182;2023-08-08T09:06:55;16.73;;;15.43;;
4182;SDS011;2105;52.300;9.182;2023-08-08T09:09:22;17.17;;;15.33;;
4182;SDS011;2105;52.300;9.182;2023-08-08T09:11:50;22.90;;;21.13;;
4182;SDS011;2105;52.300;9.182;2023-08-08T09:14:20;16.57;;;15.20;;
4182;SDS011;2105;52.300;9.182;2023-08-08T09:16:47;21.47;;;19.53;;
4182;SDS011;2105;52.300;9.182;2023-08-08T09:19:15;22.43;;;19.40;;
4182;SDS011;2105;52.300;9.182;2023-08-08T09:21:43;23.53;;;21.30;;
4182;SDS011;2105;52.300;9.182;2023-08-08T09:24:11;27.20;;;16.90;;
4182;SDS011;2105;52.300;9.182;2023-08-08T09:26:38;17.40;;;16.00;;
4182;SDS011;2105;52.300;9.182;2023-08-08T09:29:06;22.07;;;20.27;;
4182;SDS011;2105;52.300;9.182;2023-08-08T09:31:35;19.07;;;17.37;;
4182;SDS011;2105;52.300;9.182;2023-08-08T09:34:03;18.23;;;16.47;;
4182;SDS011;2105;52.300;9.182;2023-08-08T09:36:31;17.30;;;15.80;;
4182;SDS011;2105;52.300;9.182;2023-08-08T09:39:00;19.43;;;16.07;;
4182;SDS011;2105;52.300;9.182;2023-08-08T09:41:27;24.23;;;21.90;;
4182;SDS011;2105;52.300;9.182;2023-08-08T09:43:54;24.53;;;22.50;;
4182;SDS011;2105;52.300;9.182;2023-08-08T09:46:22;18.27;;;16.70;;
4182;SDS011;2105;52.300;9.182;2023-08-08T09:48:50;17.83;;;16.10;;
4182;SDS011;2105;52.300;9.182;2023-08-08T09:51:18;17.37;;;15.90;;
4182;SDS011;2105;52.300;9.182;2023-08-08T09:53:47;17.50;;;16.10;;
4182;SDS011;2105;52.300;9.182;2023-08-08T09:56:15;17.43;;;15.80;;
4182;SDS011;2105;52.300;9.182;2023-08-08T09:58:43;21.80;;;20.10;;
4182;SDS011;2105;52.300;9.182;2023-08-08T10:01:10;21.83;;;19.80;;
4182;SDS011;2105;52.300;9.182;2023-08-08T10:03:38;19.97;;;18.27;;
4182;SDS011;2105;52.300;9.182;2023-08-08T10:06:08;18.23;;;15.70;;
4182;SDS011;2105;52.300;9.182;2023-08-08T10:08:35;15.83;;;14.43;;
4182;SDS011;2105;52.300;9.182;2023-08-08T10:11:02;17.53;;;15.77;;
4182;SDS011;2105;52.300;9.182;2023-08-08T10:13:32;24.07;;;21.90;;
4182;SDS011;2105;52.300;9.182;2023-08-08T10:16:07;21.07;;;19.57;;
4182;SDS011;2105;52.300;9.182;2023-08-08T10:18:42;16.50;;;14.70;;
4182;SDS011;2105;52.300;9.182;2023-08-08T10:21:11;16.53;;;14.93;;
4182;SDS011;2105;52.300;9.182;2023-08-08T10:23:38;16.80;;;14.77;;
4182;SDS011;2105;52.300;9.182;2023-08-08T10:26:16;16.93;;;15.40;;
4182;SDS011;2105;52.300;9.182;2023-08-08T10:28:52;16.90;;;15.10;;
4182;SDS011;2105;52.300;9.182;2023-08-08T10:31:19;23.50;;;21.70;;
4182;SDS011;2105;52.300;9.182;2023-08-08T10:33:47;24.90;;;18.30;;
4182;SDS011;2105;52.300;9.182;2023-08-08T10:36:16;19.90;;;18.23;;
4182;SDS011;2105;52.300;9.182;2023-08-08T10:38:44;23.17;;;20.83;;
4182;SDS011;2105;52.300;9.182;2023-08-08T10:41:12;22.70;;;20.77;;
4182;SDS011;2105;52.300;9.182;2023-08-08T10:43:46;16.40;;;14.80;;
4182;SDS011;2105;52.300;9.182;2023-08-08T10:46:14;25.40;;;14.40;;
4182;SDS011;2105;52.300;9.182;2023-08-08T10:48:48;15.53;;;13.93;;
4182;SDS011;2105;52.300;9.182;2023-08-08T10:51:17;17.33;;;14.20;;
4182;SDS011;2105;52.300;9.182;2023-08-08T10:53:44;16.30;;;14.27;;
4182;SDS011;2105;52.300;9.182;2023-08-08T10:56:12;20.13;;;18.13;;
4182;SDS011;2105;52.300;9.182;2023-08-08T10:58:40;18.00;;;16.10;;
4182;SDS011;2105;52.300;9.182;2023-08-08T11:01:07;19.07;;;17.20;;
4182;SDS011;2105;52.300;9.182;2023-08-08T11:03:36;18.27;;;15.00;;
4182;SDS011;2105;52.300;9.182;2023-08-08T11:06:04;16.93;;;15.10;;
4182;SDS011;2105;52.300;9.182;2023-08-08T11:08:34;20.53;;;18.47;;
4182;SDS011;2105;52.300;9.182;2023-08-08T11:11:03;22.50;;;20.40;;
4182;SDS011;2105;52.300;9.182;2023-08-08T11:13:31;21.43;;;16.43;;
4182;SDS011;2105;52.300;9.182;2023-08-08T11:15:58;19.03;;;17.27;;
4182;SDS011;2105;52.300;9.182;2023-08-08T11:18:27;26.43;;;21.83;;
4182;SDS011;2105;52.300;9.182;2023-08-08T11:20:54;21.07;;;16.90;;
4182;SDS011;2105;52.300;9.182;2023-08-08T11:23:21;21.30;;;19.40;;
4182;SDS011;2105;52.300;9.182;2023-08-08T11:25:50;19.40;;;17.13;;
4182;SDS011;2105;52.300;9.182;2023-08-08T11:28:17;19.30;;;17.40;;
4182;SDS011;2105;52.300;9.182;2023-08-08T11:30:43;18.27;;;16.57;;
4182;SDS011;2105;52.300;9.182;2023-08-08T11:33:12;18.73;;;16.70;;
4182;SDS011;2105;52.300;9.182;2023-08-08T11:35:43;18.50;;;16.60;;
4182;SDS011;2105;52.300;9.182;2023-08-08T11:38:11;20.97;;;19.03;;
4182;SDS011;2105;52.300;9.182;2023-08-08T11:40:39;20.30;;;18.40;;
4182;SDS011;2105;52.300;9.182;2023-08-08T11:43:08;23.70;;;17.10;;
4182;SDS011;2105;52.300;9.182;2023-08-08T11:45:36;22.90;;;16.17;;
4182;SDS011;2105;52.300;9.182;2023-08-08T11:48:04;18.70;;;16.97;;
4182;SDS011;2105;52.300;9.182;2023-08-08T11:50:31;22.57;;;17.63;;
4182;SDS011;2105;52.300;9.182;2023-08-08T11:52:58;22.17;;;20.03;;
4182;SDS011;2105;52.300;9.182;2023-08-08T11:55:29;23.97;;;18.87;;
4182;SDS011;2105;52.300;9.182;2023-08-08T11:57:57;19.10;;;17.30;;
4182;SDS011;2105;52.300;9.182;2023-08-08T12:00:27;23.87;;;17.20;;
4182;SDS011;2105;52.300;9.182;2023-08-08T12:02:56;18.53;;;16.80;;
4182;SDS011;2105;52.300;9.182;2023-08-08T12:05:23;17.70;;;16.00;;
4182;SDS011;2105;52.300;9.182;2023-08-08T12:07:51;18.20;;;16.60;;
4182;SDS011;2105;52.300;9.182;2023-08-08T12:10:19;18.13;;;16.40;;
4182;SDS011;2105;52.300;9.182;2023-08-08T12:12:46;20.27;;;18.03;;
4182;SDS011;2105;52.300;9.182;2023-08-08T12:15:14;19.23;;;17.40;;
4182;SDS011;2105;52.300;9.182;2023-08-08T12:17:42;19.10;;;17.60;;
4182;SDS011;2105;52.300;9.182;2023-08-08T12:20:09;20.90;;;18.53;;
4182;SDS011;2105;52.300;9.182;2023-08-08T12:22:37;18.53;;;17.00;;
4182;SDS011;2105;52.300;9.182;2023-08-08T12:25:04;20.00;;;17.97;;
4182;SDS011;2105;52.300;9.182;2023-08-08T12:27:33;21.53;;;17.50;;
4182;SDS011;2105;52.300;9.182;2023-08-08T12:30:00;18.57;;;17.00;;
4182;SDS011;2105;52.300;9.182;2023-08-08T12:32:27;18.50;;;16.83;;
4182;SDS011;2105;52.300;9.182;2023-08-08T12:34:58;32.70;;;16.67;;
4182;SDS011;2105;52.300;9.182;2023-08-08T12:37:25;22.83;;;14.63;;
4182;SDS011;2105;52.300;9.182;2023-08-08T12:39:52;14.50;;;13.20;;
4182;SDS011;2105;52.300;9.182;2023-08-08T12:42:19;14.00;;;12.70;;
4182;SDS011;2105;52.300;9.182;2023-08-08T12:44:46;14.00;;;13.00;;
4182;SDS011;2105;52.300;9.182;2023-08-08T12:47:16;14.30;;;13.10;;
4182;SDS011;2105;52.300;9.182;2023-08-08T12:49:43;13.87;;;12.57;;
4182;SDS011;2105;52.300;9.182;2023-08-08T12:52:11;14.13;;;12.73;;
4182;SDS011;2105;52.300;9.182;2023-08-08T12:54:39;14.37;;;12.90;;
4182;SDS011;2105;52.300;9.182;2023-08-08T12:57:06;13.83;;;12.63;;
4182;SDS011;2105;52.300;9.182;2023-08-08T12:59:33;14.40;;;13.00;;
4182;SDS011;2105;52.300;9.182;2023-08-08T13:02:01;14.43;;;13.13;;
4182;SDS011;2105;52.300;9.182;2023-08-08T13:04:29;16.10;;;14.40;;
4182;SDS011;2105;52.300;9.182;2023-08-08T13:06:56;15.30;;;13.90;;
4182;SDS011;2105;52.300;9.182;2023-08-08T13:09:24;17.07;;;15.20;;
4182;SDS011;2105;52.300;9.182;2023-08-08T13:11:51;17.80;;;15.30;;
4182;SDS011;2105;52.300;9.182;2023-08-08T13:14:18;17.27;;;15.43;;
4182;SDS011;2105;52.300;9.182;2023-08-08T13:16:46;17.20;;;15.80;;
4182;SDS011;2105;52.300;9.182;2023-08-08T13:19:13;17.43;;;16.03;;
4182;SDS011;2105;52.300;9.182;2023-08-08T13:21:44;18.37;;;16.47;;
4182;SDS011;2105;52.300;9.182;2023-08-08T13:24:11;18.00;;;16.40;;
4182;SDS011;2105;52.300;9.182;2023-08-08T13:26:40;18.03;;;16.23;;
4182;SDS011;2105;52.300;9.182;2023-08-08T13:29:07;17.87;;;16.57;;
4182;SDS011;2105;52.300;9.182;2023-08-08T13:31:34;16.87;;;15.47;;
4182;SDS011;2105;52.300;9.182;2023-08-08T13:34:01;17.23;;;15.10;;
4182;SDS011;2105;52.300;9.182;2023-08-08T13:36:29;15.30;;;13.80;;
4182;SDS011;2105;52.300;9.182;2023-08-08T13:38:56;16.50;;;13.77;;
4182;SDS011;2105;52.300;9.182;2023-08-08T13:41:24;15.67;;;14.37;;
4182;SDS011;2105;52.300;9.182;2023-08-08T13:43:53;15.20;;;13.90;;
4182;SDS011;2105;52.300;9.182;2023-08-08T13:46:20;16.00;;;14.40;;
4182;SDS011;2105;52.300;9.182;2023-08-08T13:48:47;16.60;;;15.20;;
4182;SDS011;2105;52.300;9.182;2023-08-08T13:51:14;17.10;;;15.60;;
4182;SDS011;2105;52.300;9.182;2023-08-08T13:53:42;16.73;;;15.00;;
4182;SDS011;2105;52.300;9.182;2023-08-08T13:56:10;16.90;;;15.50;;
4182;SDS011;2105;52.300;9.182;2023-08-08T13:58:38;17.60;;;16.00;;
4182;SDS011;2105;52.300;9.182;2023-08-08T14:01:06;17.23;;;15.83;;
4182;SDS011;2105;52.300;9.182;2023-08-08T14:03:33;17.20;;;15.90;;
4182;SDS011;2105;52.300;9.182;2023-08-08T14:06:00;18.50;;;16.70;;
4182;SDS011;2105;52.300;9.182;2023-08-08T14:08:27;17.93;;;16.60;;
4182;SDS011;2105;52.300;9.182;2023-08-08T14:10:55;18.70;;;17.20;;
4182;SDS011;2105;52.300;9.182;2023-08-08T14:13:22;18.73;;;17.33;;
4182;SDS011;2105;52.300;9.182;2023-08-08T14:15:49;18.40;;;16.90;;
4182;SDS011;2105;52.300;9.182;2023-08-08T14:18:18;18.27;;;16.50;;
4182;SDS011;2105;52.300;9.182;2023-08-08T14:20:45;18.57;;;16.63;;
4182;SDS011;2105;52.300;9.182;2023-08-08T14:23:12;18.30;;;16.80;;
4182;SDS011;2105;52.300;9.182;2023-08-08T14:25:39;18.50;;;16.90;;
4182;SDS011;2105;52.300;9.182;2023-08-08T14:28:06;18.30;;;16.90;;
4182;SDS011;2105;52.300;9.182;2023-08-08T14:30:33;18.70;;;16.93;;
4182;SDS011;2105;52.300;9.182;2023-08-08T14:33:00;15.50;;;14.00;;
4182;SDS011;2105;52.300;9.182;2023-08-08T14:35:29;7.53;;;6.77;;
4182;SDS011;2105;52.300;9.182;2023-08-08T14:37:56;10.57;;;9.47;;
4182;SDS011;2105;52.300;9.182;2023-08-08T14:40:23;11.20;;;10.50;;
4182;SDS011;2105;52.300;9.182;2023-08-08T14:42:50;11.17;;;10.20;;
4182;SDS011;2105;52.300;9.182;2023-08-08T14:45:17;11.90;;;10.73;;
4182;SDS011;2105;52.300;9.182;2023-08-08T14:47:46;10.50;;;9.70;;
4182;SDS011;2105;52.300;9.182;2023-08-08T14:50:13;10.90;;;10.00;;
4182;SDS011;2105;52.300;9.182;2023-08-08T14:52:41;10.80;;;10.00;;
4182;SDS011;2105;52.300;9.182;2023-08-08T14:55:08;10.67;;;9.90;;
4182;SDS011;2105;52.300;9.182;2023-08-08T14:57:35;11.03;;;10.23;;